Time;durP1;ratioP1;P1;durP2;ratioP2;P2;SDS_P1;SDS_P2;PMS_P1;PMS_P2;Temp;Humidity;BMP_temperature;BMP_pressure;BME280_temperature;BME280_humidity;BME280_pressure;Samples;Min_cycle;Max_cycle;Signal;HPM_P1;HPM_P2
2023/07/22 00:00:49;;;;;;;4.23;3.83;;;;;;;17.74;58.08;96210.31;5029069;28;20258;-68
2023/07/22 00:03:14;;;;;;;8.97;3.30;;;;;;;17.75;58.45;96204.88;5029048;28;20196;-69
2023/07/22 00:05:40;;;;;;;4.30;3.23;;;;;;;17.73;58.52;96204.16;5029266;28;20242;-69
2023/07/22 00:08:05;;;;;;;3.80;3.47;;;;;;;17.70;58.14;96199.09;5031117;28;21015;-69
2023/07/22 00:10:31;;;;;;;4.83;3.37;;;;;;;17.66;58.04;96207.38;5027448;28;20163;-67
2023/07/22 00:12:56;;;;;;;6.80;4.00;;;;;;;17.56;58.68;96205.44;5028601;28;20221;-66
2023/07/22 00:15:23;;;;;;;4.67;3.50;;;;;;;17.60;58.29;96200.75;5028212;28;20268;-69
2023/07/22 00:17:49;;;;;;;6.67;3.00;;;;;;;17.59;58.14;96208.81;5029641;28;20279;-68
2023/07/22 00:20:15;;;;;;;5.40;3.80;;;;;;;17.56;58.02;96205.44;5031643;28;20418;-69
2023/07/22 00:22:41;;;;;;;5.67;3.73;;;;;;;17.52;58.07;96205.78;5032013;28;20183;-68
2023/07/22 00:25:10;;;;;;;5.90;3.33;;;;;;;17.55;58.11;96203.75;5031712;28;20432;-69
2023/07/22 00:27:45;;;;;;;6.13;3.80;;;;;;;17.58;57.93;96204.47;5031777;28;20183;-67
2023/07/22 00:30:11;;;;;;;11.70;3.97;;;;;;;17.49;58.11;96206.84;5031627;28;20412;-68
2023/07/22 00:32:40;;;;;;;8.63;3.80;;;;;;;17.51;58.02;96199.63;5031638;28;20915;-67
2023/07/22 00:35:06;;;;;;;4.97;3.27;;;;;;;17.41;58.28;96197.75;5031339;28;20291;-67
2023/07/22 00:37:32;;;;;;;6.47;3.50;;;;;;;17.47;58.11;96197.31;5031390;28;20421;-67
2023/07/22 00:39:58;;;;;;;8.00;3.10;;;;;;;17.46;58.02;96192.97;5031052;28;20410;-68
2023/07/22 00:42:24;;;;;;;7.60;3.10;;;;;;;17.49;58.06;96185.63;5031221;28;20211;-68
2023/07/22 00:44:49;;;;;;;4.77;4.13;;;;;;;17.44;57.70;96182.47;5031569;28;20196;-67
2023/07/22 00:47:15;;;;;;;6.50;3.13;;;;;;;17.44;57.91;96182.47;5031606;28;20603;-68
2023/07/22 00:49:41;;;;;;;5.70;3.27;;;;;;;17.37;57.93;96183.06;5045016;28;20699;-67
2023/07/22 00:52:06;;;;;;;10.13;4.57;;;;;;;17.39;58.02;96181.13;5051056;28;20398;-67
2023/07/22 00:54:32;;;;;;;6.77;3.73;;;;;;;17.32;58.09;96183.41;5050932;28;20710;-68
2023/07/22 00:56:57;;;;;;;6.10;3.00;;;;;;;17.35;58.25;96184.00;5051152;28;20252;-67
2023/07/22 00:59:24;;;;;;;6.67;3.33;;;;;;;17.36;58.06;96184.84;5051190;28;20177;-70
2023/07/22 01:01:50;;;;;;;13.67;3.47;;;;;;;17.38;58.28;96188.22;5050670;28;20217;-69
2023/07/22 01:04:19;;;;;;;12.17;4.53;;;;;;;17.25;58.65;96183.00;5050506;28;20806;-69
2023/07/22 01:06:44;;;;;;;7.30;4.07;;;;;;;17.23;58.02;96181.44;5050428;28;20170;-67
2023/07/22 01:09:10;;;;;;;12.13;3.80;;;;;;;17.22;58.30;96182.38;5050397;28;20410;-68
2023/07/22 01:11:36;;;;;;;7.70;3.67;;;;;;;17.25;57.88;96185.66;5050961;28;20244;-68
2023/07/22 01:14:01;;;;;;;5.90;3.00;;;;;;;17.27;57.57;96177.59;5050438;28;20221;-66
2023/07/22 01:16:28;;;;;;;6.43;3.30;;;;;;;17.16;58.18;96173.06;5051894;28;20182;-68
2023/07/22 01:18:54;;;;;;;6.20;3.23;;;;;;;17.16;58.04;96173.06;5054002;28;20169;-68
2023/07/22 01:21:22;;;;;;;5.23;3.47;;;;;;;17.10;58.20;96177.03;5058691;28;20496;-68
2023/07/22 01:23:48;;;;;;;12.47;4.10;;;;;;;17.06;58.64;96183.50;5050469;28;20487;-68
2023/07/22 01:26:14;;;;;;;11.60;4.03;;;;;;;17.06;58.75;96174.72;5050304;28;20405;-68
2023/07/22 01:28:39;;;;;;;6.90;3.70;;;;;;;17.03;58.95;96170.50;5049721;28;20171;-66
2023/07/22 01:31:05;;;;;;;5.70;3.40;;;;;;;16.97;58.79;96175.38;5049495;28;20945;-68
2023/07/22 01:33:31;;;;;;;4.30;3.07;;;;;;;16.93;58.86;96175.59;5050145;28;20217;-68
2023/07/22 01:35:57;;;;;;;8.13;4.33;;;;;;;16.93;58.68;96174.75;5049944;28;20182;-67
2023/07/22 01:38:22;;;;;;;3.90;2.77;;;;;;;16.87;58.40;96180.50;5050023;28;20409;-68
2023/07/22 01:40:47;;;;;;;8.33;3.23;;;;;;;16.87;58.85;96169.91;5049660;28;20211;-70
2023/07/22 01:43:13;;;;;;;4.30;3.90;;;;;;;16.88;58.64;96161.84;5050168;28;20175;-66
2023/07/22 01:45:39;;;;;;;3.57;3.10;;;;;;;16.86;58.55;96163.75;5050363;28;20163;-66
2023/07/22 01:48:06;;;;;;;9.43;3.37;;;;;;;16.88;58.46;96171.59;5048951;28;20205;-66
2023/07/22 01:50:32;;;;;;;3.80;3.37;;;;;;;16.85;59.00;96171.81;5030355;28;20410;-67
2023/07/22 01:52:57;;;;;;;6.20;3.43;;;;;;;16.79;58.77;96169.59;5048400;28;20437;-67
2023/07/22 01:55:22;;;;;;;4.30;3.53;;;;;;;16.73;59.19;96163.75;5042780;28;20191;-67
2023/07/22 01:57:48;;;;;;;5.73;2.80;;;;;;;16.72;59.12;96159.44;5038506;28;20578;-67
2023/07/22 02:00:15;;;;;;;5.63;3.33;;;;;;;16.62;59.59;96165.50;5035491;28;20175;-68
2023/07/22 02:02:41;;;;;;;6.23;3.20;;;;;;;16.61;59.61;96167.31;5030106;28;20198;-67
2023/07/22 02:05:08;;;;;;;8.00;3.90;;;;;;;16.57;60.16;96170.28;5029484;28;20433;-67
2023/07/22 02:07:33;;;;;;;12.03;3.57;;;;;;;16.59;59.78;96168.38;5029367;28;20407;-67
2023/07/22 02:09:59;;;;;;;4.63;3.40;;;;;;;16.56;59.95;96179.16;5029266;28;20406;-67
2023/07/22 02:12:24;;;;;;;5.80;3.60;;;;;;;16.57;60.02;96170.28;5029573;28;20167;-66
2023/07/22 02:14:50;;;;;;;6.20;3.80;;;;;;;16.60;60.40;96165.59;5029566;28;20191;-68
2023/07/22 02:17:15;;;;;;;5.93;3.87;;;;;;;16.57;60.37;96165.81;5029453;28;20203;-66
2023/07/22 02:19:41;;;;;;;4.77;3.73;;;;;;;16.49;60.65;96170.84;5029131;28;20176;-67
2023/07/22 02:22:06;;;;;;;5.17;3.40;;;;;;;16.45;60.77;96172.84;5029248;28;20199;-67
2023/07/22 02:24:32;;;;;;;4.23;3.40;;;;;;;16.46;61.06;96184.28;5029270;28;20199;-67
2023/07/22 02:26:57;;;;;;;9.43;3.17;;;;;;;16.46;61.10;96185.16;5029320;28;20569;-66
2023/07/22 02:29:23;;;;;;;5.87;3.77;;;;;;;16.43;61.14;96190.63;5028663;28;20270;-67
2023/07/22 02:31:48;;;;;;;6.80;3.90;;;;;;;16.33;61.91;96181.66;5029222;28;20247;-67
2023/07/22 02:34:13;;;;;;;4.33;3.67;;;;;;;16.44;61.75;96191.47;5029092;28;20202;-66
2023/07/22 02:36:39;;;;;;;4.47;3.30;;;;;;;16.41;61.71;96189.06;5029069;28;20532;-68
2023/07/22 02:39:04;;;;;;;4.57;4.00;;;;;;;16.30;61.90;96193.31;5028861;28;20281;-68
2023/07/22 02:41:30;;;;;;;7.23;3.73;;;;;;;16.20;62.56;96191.41;5029148;28;20253;-68
2023/07/22 02:43:55;;;;;;;20.77;5.00;;;;;;;16.22;62.22;96186.84;5029024;28;20203;-69
2023/07/22 02:46:21;;;;;;;11.30;5.70;;;;;;;16.26;62.20;96183.88;5028553;28;20203;-68
2023/07/22 02:48:47;;;;;;;19.80;5.83;;;;;;;16.23;62.19;96185.91;5035207;28;20479;-68
2023/07/22 02:51:12;;;;;;;5.80;4.00;;;;;;;16.23;62.51;96189.41;5048684;28;20604;-68
2023/07/22 02:53:38;;;;;;;8.10;4.17;;;;;;;16.32;62.10;96195.00;5048660;28;20544;-68
2023/07/22 02:56:07;;;;;;;7.33;3.57;;;;;;;16.22;62.37;96187.69;5048659;28;20177;-68
2023/07/22 02:58:33;;;;;;;5.00;4.03;;;;;;;16.34;62.07;96193.09;5048438;28;20235;-68
2023/07/22 03:00:58;;;;;;;12.83;4.63;;;;;;;16.28;62.36;96197.88;5048334;28;20465;-68
2023/07/22 03:03:24;;;;;;;11.67;4.87;;;;;;;16.41;61.63;96202.31;5048248;28;20952;-68
2023/07/22 03:05:49;;;;;;;12.40;5.00;;;;;;;16.25;62.16;96207.81;5048384;28;20171;-68
2023/07/22 03:08:17;;;;;;;6.97;3.77;;;;;;;16.27;62.00;96206.75;5048295;28;20584;-68
2023/07/22 03:10:48;;;;;;;9.70;3.87;;;;;;;16.18;62.06;96217.13;5048049;28;20175;-68
2023/07/22 03:13:13;;;;;;;3.97;3.30;;;;;;;16.22;61.76;96214.16;5048111;28;20413;-68
2023/07/22 03:15:39;;;;;;;12.53;3.80;;;;;;;16.13;62.13;96213.97;5048315;28;21003;-69
2023/07/22 03:18:06;;;;;;;13.30;5.03;;;;;;;16.00;62.42;96208.69;5048127;28;20198;-68
2023/07/22 03:20:31;;;;;;;11.93;3.77;;;;;;;15.98;62.39;96205.28;5047877;28;20182;-69
2023/07/22 03:22:57;;;;;;;21.87;6.47;;;;;;;15.94;62.76;96198.50;5048016;28;21034;-68
2023/07/22 03:25:22;;;;;;;8.00;3.67;;;;;;;16.09;62.04;96193.00;5047688;28;20197;-68
2023/07/22 03:27:48;;;;;;;18.00;5.30;;;;;;;16.11;62.25;96203.50;5047905;28;20184;-68
2023/07/22 03:30:15;;;;;;;12.17;4.33;;;;;;;15.98;62.61;96200.00;5047465;28;20574;-68
2023/07/22 03:32:45;;;;;;;16.10;5.10;;;;;;;15.81;62.94;96204.63;5048272;28;20461;-69
2023/07/22 03:35:11;;;;;;;11.03;4.23;;;;;;;15.93;62.76;96208.25;5047838;28;20433;-69
2023/07/22 03:37:37;;;;;;;9.73;3.97;;;;;;;15.85;62.90;96210.56;5048008;28;20895;-69
2023/07/22 03:40:30;;;;;;;5.87;3.30;;;;;;;15.79;63.07;96214.47;5047513;28;20426;-69
2023/07/22 03:42:53;;;;;;;43.07;6.40;;;;;;;15.74;63.38;96213.94;5047720;28;20251;-68
2023/07/22 03:45:20;;;;;;;6.30;3.67;;;;;;;15.80;62.97;96221.47;5048187;28;20804;-68
2023/07/22 03:47:47;;;;;;;12.33;4.43;;;;;;;15.88;63.25;96215.66;5048258;28;20782;-65
2023/07/22 03:50:12;;;;;;;13.37;4.30;;;;;;;15.91;63.02;96209.31;5029417;28;20845;-67
2023/07/22 03:52:38;;;;;;;6.33;3.67;;;;;;;15.95;63.05;96202.84;5029219;28;20402;-66
2023/07/22 03:55:05;;;;;;;11.50;5.97;;;;;;;16.04;62.35;96211.00;5032171;28;20272;-64
2023/07/22 03:57:31;;;;;;;14.17;4.83;;;;;;;16.09;62.56;96213.34;5031932;28;20191;-65
2023/07/22 03:59:57;;;;;;;23.07;4.60;;;;;;;16.04;62.41;96212.81;5031617;28;20486;-67
2023/07/22 04:02:23;;;;;;;17.80;6.30;;;;;;;16.01;62.58;96205.06;5031894;28;20549;-66
2023/07/22 04:04:51;;;;;;;14.30;4.97;;;;;;;16.07;62.32;96202.84;5031526;28;20436;-67
2023/07/22 04:07:16;;;;;;;21.60;4.90;;;;;;;16.21;61.86;96203.72;5031593;28;20410;-67
2023/07/22 04:09:41;;;;;;;29.43;7.63;;;;;;;16.30;61.51;96193.31;5031526;28;20830;-67
2023/07/22 04:12:07;;;;;;;28.57;6.33;;;;;;;16.57;60.29;96187.00;5031667;28;20167;-67
2023/07/22 04:14:33;;;;;;;8.00;3.80;;;;;;;16.37;61.42;96198.16;5031460;28;20279;-67
2023/07/22 04:16:58;;;;;;;22.33;7.80;;;;;;;16.41;61.07;96197.00;5031590;28;20497;-66
2023/07/22 04:19:24;;;;;;;18.37;5.43;;;;;;;16.48;60.59;96192.97;5031641;28;20176;-68
2023/07/22 04:21:49;;;;;;;27.97;8.70;;;;;;;16.67;60.12;96196.00;5031444;28;20207;-67
2023/07/22 04:24:14;;;;;;;8.67;3.80;;;;;;;16.64;59.87;96182.97;5031566;28;20196;-66
2023/07/22 04:26:42;;;;;;;9.17;4.40;;;;;;;16.52;59.93;96197.09;5031630;28;20765;-67
2023/07/22 04:29:08;;;;;;;7.03;4.33;;;;;;;16.53;60.10;96198.78;5031288;28;20259;-67
2023/07/22 04:31:33;;;;;;;4.90;3.63;;;;;;;16.77;58.79;96197.97;5031376;28;20398;-68
2023/07/22 04:33:58;;;;;;;6.20;3.93;;;;;;;17.03;58.04;96194.34;5031277;28;20188;-66
2023/07/22 04:36:24;;;;;;;15.63;4.20;;;;;;;17.11;57.37;96199.09;5031461;28;20171;-67
2023/07/22 04:38:49;;;;;;;9.47;3.60;;;;;;;17.13;58.09;96205.13;5031192;28;20174;-67
2023/07/22 04:41:16;;;;;;;9.43;4.43;;;;;;;17.25;58.03;96193.59;5036099;28;20618;-72
2023/07/22 04:43:41;;;;;;;7.67;3.60;;;;;;;17.29;57.57;96200.38;5031029;28;20195;-66
2023/07/22 04:46:07;;;;;;;14.00;4.50;;;;;;;17.52;57.28;96200.47;5030945;28;20772;-68
2023/07/22 04:48:32;;;;;;;11.17;4.67;;;;;;;17.59;56.35;96192.91;5035615;28;20647;-69
2023/07/22 04:50:58;;;;;;;12.30;3.17;;;;;;;17.77;56.32;96207.44;5050544;28;20492;-69
2023/07/22 04:53:23;;;;;;;7.20;4.20;;;;;;;17.92;55.49;96208.94;5051294;28;20186;-67
2023/07/22 04:55:49;;;;;;;7.87;3.90;;;;;;;18.00;55.59;96211.03;5051037;28;20246;-67
2023/07/22 04:58:14;;;;;;;13.53;4.10;;;;;;;18.13;55.37;96217.06;5050714;28;20167;-67
2023/07/22 05:00:39;;;;;;;6.20;4.30;;;;;;;18.28;55.10;96215.03;5050881;28;20695;-67
2023/07/22 05:03:05;;;;;;;17.90;5.67;;;;;;;18.52;54.44;96212.28;5050674;28;20167;-67
2023/07/22 05:05:31;;;;;;;12.17;4.00;;;;;;;18.65;53.63;96221.94;5049662;28;20163;-67
2023/07/22 05:07:57;;;;;;;6.40;3.97;;;;;;;18.76;52.59;96217.50;5050818;28;20166;-68
2023/07/22 05:10:22;;;;;;;10.47;3.90;;;;;;;18.80;53.12;96216.28;5050279;28;20412;-67
2023/07/22 05:12:48;;;;;;;14.50;3.60;;;;;;;18.86;53.41;96214.09;5050188;28;20174;-67
2023/07/22 05:15:16;;;;;;;15.60;4.17;;;;;;;19.00;52.77;96217.34;5050244;28;20194;-68
2023/07/22 05:17:41;;;;;;;11.73;4.30;;;;;;;19.05;52.73;96222.28;5032025;28;20175;-68
2023/07/22 05:20:12;;;;;;;10.03;4.47;;;;;;;19.25;52.65;96212.69;5049963;28;20479;-68
2023/07/22 05:22:38;;;;;;;8.43;4.10;;;;;;;19.25;52.64;96228.63;5050068;28;20722;-68
2023/07/22 05:25:05;;;;;;;16.00;4.10;;;;;;;19.38;52.04;96225.84;5050036;28;20433;-67
2023/07/22 05:27:30;;;;;;;6.07;3.50;;;;;;;19.45;51.99;96224.38;5050131;28;20488;-66
2023/07/22 05:29:56;;;;;;;10.63;3.80;;;;;;;19.74;51.14;96221.13;5050070;28;20413;-68
2023/07/22 05:32:21;;;;;;;12.77;3.90;;;;;;;19.80;50.75;96218.81;5049656;28;20185;-67
2023/07/22 05:34:47;;;;;;;6.67;4.17;;;;;;;19.73;50.96;96225.63;5049824;28;20187;-67
2023/07/22 05:37:12;;;;;;;10.10;3.53;;;;;;;20.01;50.56;96223.31;5049720;28;20175;-67
2023/07/22 05:39:37;;;;;;;17.27;4.27;;;;;;;20.04;50.50;96218.53;5049532;28;20182;-67
2023/07/22 05:42:03;;;;;;;8.63;4.30;;;;;;;20.28;50.08;96228.09;5032077;28;20256;-66
2023/07/22 05:44:29;;;;;;;9.10;4.23;;;;;;;20.31;49.81;96225.16;5049764;28;20195;-69
2023/07/22 05:46:55;;;;;;;18.53;4.80;;;;;;;20.61;49.41;96226.19;5049822;28;20221;-68
2023/07/22 05:49:21;;;;;;;21.27;4.40;;;;;;;20.54;49.33;96225.84;5038211;28;20647;-69
2023/07/22 05:51:46;;;;;;;10.57;3.70;;;;;;;20.72;48.71;96231.44;5029802;28;20417;-65
2023/07/22 05:54:11;;;;;;;9.63;4.20;;;;;;;20.91;48.12;96228.84;5029571;28;20191;-65
2023/07/22 05:56:37;;;;;;;8.07;3.33;;;;;;;20.85;47.94;96234.69;5030548;28;20288;-68
2023/07/22 05:59:02;;;;;;;10.83;4.23;;;;;;;21.02;48.11;96233.19;5029312;28;20175;-67
2023/07/22 06:01:28;;;;;;;6.70;3.90;;;;;;;21.34;47.41;96226.84;5029627;28;20676;-69
2023/07/22 06:03:53;;;;;;;14.13;4.17;;;;;;;21.37;46.95;96231.88;5029208;28;20191;-68
2023/07/22 06:06:18;;;;;;;11.63;4.10;;;;;;;21.33;47.08;96226.00;5029528;28;20206;-69
2023/07/22 06:08:44;;;;;;;9.80;4.00;;;;;;;21.37;46.52;96231.88;5029133;28;20225;-69
2023/07/22 06:11:09;;;;;;;7.47;3.77;;;;;;;21.42;47.03;96232.34;5029273;28;20254;-68
2023/07/22 06:13:35;;;;;;;23.10;4.40;;;;;;;21.51;46.31;96233.34;5029232;28;20187;-68
2023/07/22 06:16:00;;;;;;;5.50;3.30;;;;;;;21.69;45.68;96234.34;5029087;28;20174;-67
2023/07/22 06:18:26;;;;;;;4.30;3.10;;;;;;;21.72;45.87;96239.41;5029468;28;20185;-67
2023/07/22 06:20:51;;;;;;;4.50;3.10;;;;;;;21.85;45.89;96235.59;5029381;28;20199;-67
2023/07/22 06:23:17;;;;;;;8.57;3.37;;;;;;;21.98;45.60;96239.66;5029210;28;20176;-66
2023/07/22 06:25:42;;;;;;;9.97;4.13;;;;;;;22.08;45.42;96242.34;5029059;28;20637;-67
2023/07/22 06:28:08;;;;;;;8.60;4.10;;;;;;;22.03;45.24;96241.91;5029540;28;20178;-66
2023/07/22 06:30:33;;;;;;;7.00;3.13;;;;;;;22.26;44.99;96245.16;5029089;28;20190;-67
2023/07/22 06:32:58;;;;;;;8.70;3.27;;;;;;;22.45;45.15;96238.09;5029355;28;20163;-66
2023/07/22 06:35:24;;;;;;;7.73;4.03;;;;;;;22.47;44.79;96244.16;5029059;28;20719;-67
2023/07/22 06:37:50;;;;;;;4.00;3.43;;;;;;;22.65;44.69;96244.22;5028943;28;20211;-66
2023/07/22 06:40:15;;;;;;;8.20;3.93;;;;;;;22.90;44.19;96245.41;5028679;28;20258;-66
2023/07/22 06:42:40;;;;;;;7.67;3.70;;;;;;;22.96;43.85;96253.69;5028896;28;20210;-67
2023/07/22 06:45:06;;;;;;;8.70;3.50;;;;;;;23.11;43.61;96250.56;5011113;28;20210;-67
2023/07/22 06:47:31;;;;;;;5.20;2.83;;;;;;;23.13;43.54;96251.25;5028912;28;20539;-67
2023/07/22 06:49:57;;;;;;;11.37;3.90;;;;;;;23.68;42.76;96253.84;5044796;28;20171;-68
2023/07/22 06:52:23;;;;;;;9.73;4.00;;;;;;;23.36;44.03;96248.97;5048636;28;20167;-67
2023/07/22 06:54:49;;;;;;;16.17;4.73;;;;;;;23.61;42.79;96253.63;5048695;28;20217;-65
2023/07/22 06:57:14;;;;;;;11.47;4.10;;;;;;;23.78;42.72;96254.66;5048411;28;20642;-67
2023/07/22 06:59:39;;;;;;;11.87;3.60;;;;;;;23.92;41.99;96252.44;5048119;28;20877;-68
2023/07/22 07:02:05;;;;;;;7.77;2.80;;;;;;;23.98;42.15;96249.16;5048352;28;20195;-66
2023/07/22 07:04:30;;;;;;;4.50;3.37;;;;;;;23.95;42.02;96252.13;5048595;28;20267;-67
2023/07/22 07:06:56;;;;;;;10.33;4.20;;;;;;;24.01;42.19;96256.88;5048732;28;20204;-68
2023/07/22 07:09:21;;;;;;;12.53;4.20;;;;;;;24.09;42.27;96257.81;5048592;28;20548;-67
2023/07/22 07:11:47;;;;;;;12.50;4.30;;;;;;;24.03;41.96;96262.94;5048593;28;20167;-68
2023/07/22 07:14:12;;;;;;;5.93;2.90;;;;;;;24.27;41.75;96259.59;5048556;28;20271;-68
2023/07/22 07:16:38;;;;;;;6.33;3.37;;;;;;;24.42;41.45;96249.16;5048500;28;20548;-69
2023/07/22 07:19:03;;;;;;;11.20;4.33;;;;;;;24.58;40.71;96256.50;5047798;28;20195;-69
2023/07/22 07:21:29;;;;;;;6.50;3.13;;;;;;;24.55;40.79;96254.16;5047911;28;20202;-68
2023/07/22 07:23:54;;;;;;;8.80;3.33;;;;;;;24.36;40.90;96258.66;5048097;28;20195;-69
2023/07/22 07:26:21;;;;;;;10.80;3.27;;;;;;;24.09;41.31;96252.44;5048518;28;20257;-69
2023/07/22 07:28:47;;;;;;;8.57;3.63;;;;;;;23.79;41.53;96267.06;5047680;28;20250;-69
2023/07/22 07:31:12;;;;;;;7.63;3.63;;;;;;;23.36;42.58;96257.03;5048477;28;20551;-67
2023/07/22 07:33:37;;;;;;;5.60;3.13;;;;;;;23.27;42.95;96268.63;5048316;28;20186;-68
2023/07/22 07:36:03;;;;;;;4.57;3.10;;;;;;;23.61;42.25;96260.81;5048535;28;20593;-66
2023/07/22 07:38:29;;;;;;;9.37;3.40;;;;;;;23.85;42.08;96258.41;5048261;28;20178;-69
2023/07/22 07:41:00;;;;;;;10.23;3.40;;;;;;;24.22;40.54;96259.22;5048010;28;20198;-68
2023/07/22 07:43:26;;;;;;;8.47;3.07;;;;;;;24.21;40.40;96258.41;5048430;28;20190;-68
2023/07/22 07:46:12;;;;;;;3.90;3.27;;;;;;;24.52;39.70;96249.94;5048899;28;20417;-68
2023/07/22 07:48:38;;;;;;;6.97;3.20;;;;;;;24.67;38.41;96253.72;5042955;28;20436;-68
2023/07/22 07:51:03;;;;;;;8.60;3.40;;;;;;;24.73;38.55;96254.91;5028143;28;20513;-67
2023/07/22 07:53:28;;;;;;;9.43;3.77;;;;;;;24.75;38.82;96249.38;5027955;28;20191;-67
2023/07/22 07:55:54;;;;;;;10.47;3.20;;;;;;;24.92;37.89;96252.00;5028461;28;20179;-67
2023/07/22 07:58:19;;;;;;;15.17;3.87;;;;;;;25.02;37.88;96253.75;5028460;28;20654;-68
2023/07/22 08:00:44;;;;;;;9.83;3.10;;;;;;;25.17;37.68;96249.44;5028007;28;20328;-68
2023/07/22 08:03:10;;;;;;;6.70;3.40;;;;;;;25.19;37.18;96250.16;5030622;28;20175;-68
2023/07/22 08:05:35;;;;;;;6.40;3.40;;;;;;;25.23;36.58;96250.66;5027996;28;20183;-68
2023/07/22 08:08:01;;;;;;;10.30;3.63;;;;;;;25.38;36.37;96246.34;5027862;28;20532;-69
2023/07/22 08:10:26;;;;;;;14.80;6.10;;;;;;;25.64;36.18;96240.03;5027513;28;20176;-69
2023/07/22 08:12:51;;;;;;;9.93;7.33;;;;;;;25.48;36.42;96240.84;5027968;28;20346;-68
2023/07/22 08:15:17;;;;;;;24.90;13.83;;;;;;;25.50;36.51;96238.81;5027470;28;20219;-69
2023/07/22 08:17:44;;;;;;;16.03;9.53;;;;;;;25.78;35.71;96237.53;5030215;28;20171;-68
2023/07/22 08:20:10;;;;;;;18.63;9.30;;;;;;;25.49;35.10;96242.50;5031039;28;20627;-69
2023/07/22 08:22:36;;;;;;;16.07;11.20;;;;;;;25.46;34.92;96240.97;5027698;28;20453;-66
2023/07/22 08:25:02;;;;;;;6.73;3.73;;;;;;;25.62;33.89;96244.72;5027708;28;20525;-66
2023/07/22 08:27:28;;;;;;;15.43;4.07;;;;;;;25.70;33.64;96233.97;5027691;28;20186;-67
2023/07/22 08:29:53;;;;;;;17.67;8.20;;;;;;;25.66;33.94;96236.19;5027287;28;20406;-67
2023/07/22 08:32:19;;;;;;;20.63;10.23;;;;;;;25.58;33.68;96236.13;5027751;28;20678;-67
2023/07/22 08:34:44;;;;;;;25.67;4.37;;;;;;;25.55;33.70;96239.16;5028035;28;20219;-68
2023/07/22 08:37:10;;;;;;;6.90;3.77;;;;;;;25.65;32.96;96226.41;5028146;28;20179;-67
2023/07/22 08:39:35;;;;;;;4.70;2.70;;;;;;;25.37;34.31;96225.88;5029746;28;20179;-66
2023/07/22 08:42:03;;;;;;;23.63;7.17;;;;;;;25.73;33.58;96225.59;5032456;28;20326;-70
2023/07/22 08:44:37;;;;;;;15.03;6.90;;;;;;;25.94;32.50;96227.84;5031879;28;20195;-68
2023/07/22 08:47:04;;;;;;;6.93;3.30;;;;;;;26.14;31.17;96221.13;5031810;28;20528;-69
2023/07/22 08:49:30;;;;;;;10.27;4.23;;;;;;;26.10;31.41;96221.63;5043870;28;20467;-68
2023/07/22 08:51:59;;;;;;;5.30;2.40;;;;;;;25.66;31.87;96228.13;5051933;28;20899;-66
2023/07/22 08:54:25;;;;;;;4.63;2.90;;;;;;;25.94;31.61;96227.84;5051523;28;20186;-67
2023/07/22 08:56:51;;;;;;;5.80;2.47;;;;;;;25.86;31.55;96222.41;5051677;28;20420;-66
2023/07/22 08:59:19;;;;;;;4.53;1.90;;;;;;;25.63;32.56;96233.81;5051646;28;20186;-68
2023/07/22 09:01:47;;;;;;;5.83;1.93;;;;;;;25.90;30.35;96221.94;5051305;28;20486;-67
2023/07/22 09:04:13;;;;;;;5.33;1.77;;;;;;;26.07;30.63;96220.09;5051555;28;21063;-67
2023/07/22 09:06:40;;;;;;;5.00;2.37;;;;;;;26.34;30.16;96221.63;5059465;28;20409;-68
2023/07/22 09:09:08;;;;;;;4.60;2.30;;;;;;;26.31;29.58;96226.47;5053588;28;20217;-67
2023/07/22 09:11:34;;;;;;;14.70;5.20;;;;;;;26.28;29.93;96219.59;5051165;28;20496;-67
2023/07/22 09:14:02;;;;;;;7.93;3.03;;;;;;;26.26;30.77;96226.16;5050943;28;20460;-67
2023/07/22 09:16:29;;;;;;;15.27;4.30;;;;;;;26.54;29.87;96221.28;5050972;28;20447;-66
2023/07/22 09:18:57;;;;;;;10.20;2.20;;;;;;;26.19;30.35;96221.44;5050598;28;20409;-67
2023/07/22 09:21:22;;;;;;;9.80;2.37;;;;;;;25.97;29.90;96217.59;5050468;28;20476;-67
2023/07/22 09:23:48;;;;;;;10.20;2.30;;;;;;;26.27;30.05;96217.06;5050444;28;20440;-68
2023/07/22 09:26:15;;;;;;;4.87;2.27;;;;;;;26.36;29.72;96219.59;5050261;28;20182;-66
2023/07/22 09:28:55;;;;;;;10.47;2.53;;;;;;;26.55;29.58;96207.66;5050470;28;20232;-66
2023/07/22 09:31:23;;;;;;;5.00;2.07;;;;;;;26.49;29.60;96223.63;5051695;28;20439;-71
2023/07/22 09:33:49;;;;;;;4.97;2.20;;;;;;;26.80;28.72;96215.66;5053754;28;20441;-68
2023/07/22 09:36:14;;;;;;;7.20;2.60;;;;;;;26.80;28.93;96213.81;5050732;28;20424;-68
2023/07/22 09:38:40;;;;;;;9.67;2.73;;;;;;;26.61;29.27;96211.50;5051470;28;20466;-68
2023/07/22 09:41:06;;;;;;;19.80;3.83;;;;;;;26.73;28.94;96222.75;5050788;28;20259;-67
2023/07/22 09:43:31;;;;;;;14.93;3.03;;;;;;;26.63;29.45;96208.66;5051440;28;20194;-68
2023/07/22 09:46:06;;;;;;;10.53;2.63;;;;;;;26.80;28.65;96207.59;5051291;28;20227;-69
2023/07/22 09:48:40;;;;;;;5.73;2.03;;;;;;;26.27;29.63;96206.31;5045537;28;20190;-67
2023/07/22 09:51:06;;;;;;;3.73;2.07;;;;;;;25.58;30.51;96203.06;5029231;28;20402;-70
2023/07/22 09:53:31;;;;;;;8.83;4.10;;;;;;;25.45;30.69;96209.75;5029646;28;20430;-67
2023/07/22 09:56:04;;;;;;;8.47;2.93;;;;;;;25.41;30.48;96212.94;5029782;28;20659;-66
2023/07/22 09:58:30;;;;;;;13.23;2.90;;;;;;;25.06;30.36;96206.75;5029862;28;20224;-67
2023/07/22 10:00:57;;;;;;;8.10;2.20;;;;;;;24.87;30.75;96211.38;5029416;28;20453;-66
2023/07/22 10:03:26;;;;;;;7.33;2.47;;;;;;;25.08;30.92;96200.22;5030421;28;20418;-68
2023/07/22 10:05:51;;;;;;;9.73;2.83;;;;;;;24.94;31.52;96216.94;5029487;28;20406;-68
2023/07/22 10:08:19;;;;;;;14.87;2.87;;;;;;;25.08;30.68;96207.44;5029504;28;20598;-69
2023/07/22 10:10:45;;;;;;;4.10;2.17;;;;;;;25.02;30.31;96210.78;5028749;28;20201;-66
2023/07/22 10:13:10;;;;;;;4.77;2.00;;;;;;;24.92;31.00;96209.06;5029617;28;20418;-68
2023/07/22 10:15:36;;;;;;;6.90;2.30;;;;;;;24.78;31.38;96211.50;5030544;28;20346;-69
2023/07/22 10:18:03;;;;;;;13.80;2.60;;;;;;;24.85;32.00;96218.75;5029846;28;20612;-67
2023/07/22 10:20:29;;;;;;;11.43;2.43;;;;;;;24.69;31.81;96219.50;5029312;28;20410;-68
2023/07/22 10:22:56;;;;;;;7.83;2.67;;;;;;;24.17;32.39;96208.75;5030270;28;20418;-67
2023/07/22 10:25:22;;;;;;;5.17;2.20;;;;;;;24.17;32.62;96214.13;5029161;28;20438;-67
2023/07/22 10:27:49;;;;;;;9.60;3.20;;;;;;;24.26;32.32;96223.91;5029825;28;20423;-68
2023/07/22 10:30:17;;;;;;;12.23;2.70;;;;;;;24.38;32.26;96221.81;5029268;28;20819;-66
2023/07/22 10:32:46;;;;;;;13.00;2.80;;;;;;;24.95;32.21;96207.06;5029432;28;20749;-68
2023/07/22 10:35:18;;;;;;;8.67;2.73;;;;;;;25.35;31.74;96206.38;5028704;28;20442;-68
2023/07/22 10:37:46;;;;;;;7.43;2.63;;;;;;;25.77;30.92;96205.44;5028795;28;20449;-66
2023/07/22 10:40:19;;;;;;;3.90;2.27;;;;;;;25.55;31.47;96210.44;5028663;28;20411;-67
2023/07/22 10:42:54;;;;;;;8.63;2.50;;;;;;;25.09;32.23;96209.97;5028515;28;20472;-68
2023/07/22 10:45:29;;;;;;;14.93;3.03;;;;;;;25.06;31.70;96209.44;5028534;28;20433;-66
2023/07/22 10:48:05;;;;;;;5.37;2.67;;;;;;;24.81;32.61;96205.81;5028717;28;20410;-66
2023/07/22 10:50:49;;;;;;;7.40;2.70;;;;;;;24.80;32.86;96204.97;5008581;28;20418;-67
2023/07/22 10:53:20;;;;;;;8.30;2.27;;;;;;;24.67;32.81;96207.25;5008611;28;20449;-67
2023/07/22 10:56:16;;;;;;;15.73;3.60;;;;;;;24.74;33.03;96199.41;5008968;28;20415;-67
2023/07/22 10:58:44;;;;;;;4.07;2.27;;;;;;;24.71;33.06;96201.41;5008588;28;20481;-66
2023/07/22 11:01:28;;;;;;;3.83;2.17;;;;;;;24.78;32.96;96190.88;5008818;28;20447;-67
2023/07/22 11:04:31;;;;;;;6.03;2.10;;;;;;;25.08;32.58;96181.41;5008165;28;20446;-68
2023/07/22 11:07:04;;;;;;;8.07;3.37;;;;;;;25.18;32.08;96181.31;5009107;28;20411;-66
2023/07/22 11:09:30;;;;;;;5.73;3.07;;;;;;;25.43;31.75;96184.06;5008985;28;20928;-66
2023/07/22 11:11:58;;;;;;;5.37;2.30;;;;;;;25.69;31.38;96184.78;5008779;28;20451;-67
2023/07/22 11:14:25;;;;;;;16.03;3.00;;;;;;;25.74;31.46;96176.22;5011055;28;20696;-66
2023/07/22 11:16:51;;;;;;;6.87;2.67;;;;;;;25.70;31.66;96169.47;5011750;28;20960;-66
2023/07/22 11:19:19;;;;;;;6.63;2.20;;;;;;;25.67;31.55;96170.66;5010941;28;20454;-67
2023/07/22 11:21:46;;;;;;;4.87;2.40;;;;;;;25.84;30.64;96163.44;5010200;28;21086;-67
2023/07/22 11:24:11;;;;;;;4.37;2.73;;;;;;;25.98;30.10;96156.56;5008385;28;20478;-68
2023/07/22 11:26:39;;;;;;;5.77;2.73;;;;;;;25.94;30.03;96153.41;5008167;28;20474;-67